sensor_id;sensor_type;location;lat;lon;timestamp;pressure;altitude;pressure_sealevel;temperature
22828;BMP180;11580;52.562;13.418;2023-07-13T00:00:13;100462.00;;;22.70
22828;BMP180;11580;52.562;13.418;2023-07-13T00:02:42;100462.00;;;22.70
22828;BMP180;11580;52.562;13.418;2023-07-13T00:05:09;100440.00;;;22.60
22828;BMP180;11580;52.562;13.418;2023-07-13T00:07:37;100458.00;;;22.60
22828;BMP180;11580;52.562;13.418;2023-07-13T00:10:07;100465.00;;;22.60
22828;BMP180;11580;52.562;13.418;2023-07-13T00:12:37;100459.00;;;22.60
22828;BMP180;11580;52.562;13.418;2023-07-13T00:15:14;100456.00;;;22.60
22828;BMP180;11580;52.562;13.418;2023-07-13T00:17:42;100457.00;;;22.60
22828;BMP180;11580;52.562;13.418;2023-07-13T00:20:11;100440.00;;;22.60
22828;BMP180;11580;52.562;13.418;2023-07-13T00:22:38;100457.00;;;22.60
22828;BMP180;11580;52.562;13.418;2023-07-13T00:25:10;100463.00;;;22.60
22828;BMP180;11580;52.562;13.418;2023-07-13T00:27:37;100471.00;;;22.60
22828;BMP180;11580;52.562;13.418;2023-07-13T00:30:06;100462.00;;;22.50
22828;BMP180;11580;52.562;13.418;2023-07-13T00:32:35;100458.00;;;22.50
22828;BMP180;11580;52.562;13.418;2023-07-13T00:35:03;100465.00;;;22.50
22828;BMP180;11580;52.562;13.418;2023-07-13T00:37:30;100465.00;;;22.50
22828;BMP180;11580;52.562;13.418;2023-07-13T00:39:58;100466.00;;;22.50
22828;BMP180;11580;52.562;13.418;2023-07-13T00:42:26;100466.00;;;22.40
22828;BMP180;11580;52.562;13.418;2023-07-13T00:48:09;100460.00;;;22.30
22828;BMP180;11580;52.562;13.418;2023-07-13T00:50:38;100463.00;;;22.30
22828;BMP180;11580;52.562;13.418;2023-07-13T00:53:06;100466.00;;;22.20
22828;BMP180;11580;52.562;13.418;2023-07-13T00:55:35;100457.00;;;22.20
22828;BMP180;11580;52.562;13.418;2023-07-13T00:58:05;100455.00;;;22.20
22828;BMP180;11580;52.562;13.418;2023-07-13T01:00:36;100457.00;;;22.10
22828;BMP180;11580;52.562;13.418;2023-07-13T01:03:04;100446.00;;;22.10
22828;BMP180;11580;52.562;13.418;2023-07-13T01:05:34;100456.00;;;22.00
22828;BMP180;11580;52.562;13.418;2023-07-13T01:08:03;100456.00;;;22.00
22828;BMP180;11580;52.562;13.418;2023-07-13T01:10:33;100454.00;;;21.90
22828;BMP180;11580;52.562;13.418;2023-07-13T01:13:08;100455.00;;;21.90
22828;BMP180;11580;52.562;13.418;2023-07-13T01:15:42;100459.00;;;21.80
22828;BMP180;11580;52.562;13.418;2023-07-13T01:18:15;100461.00;;;21.80
22828;BMP180;11580;52.562;13.418;2023-07-13T01:20:55;100471.00;;;21.70
22828;BMP180;11580;52.562;13.418;2023-07-13T01:23:24;100463.00;;;21.70
22828;BMP180;11580;52.562;13.418;2023-07-13T01:25:53;100469.00;;;21.60
22828;BMP180;11580;52.562;13.418;2023-07-13T01:28:23;100466.00;;;21.60
22828;BMP180;11580;52.562;13.418;2023-07-13T01:30:54;100470.00;;;21.60
22828;BMP180;11580;52.562;13.418;2023-07-13T01:33:22;100473.00;;;21.50
22828;BMP180;11580;52.562;13.418;2023-07-13T01:35:51;100464.00;;;21.50
22828;BMP180;11580;52.562;13.418;2023-07-13T01:38:21;100464.00;;;21.50
22828;BMP180;11580;52.562;13.418;2023-07-13T01:40:50;100456.00;;;21.40
22828;BMP180;11580;52.562;13.418;2023-07-13T01:43:18;100460.00;;;21.50
22828;BMP180;11580;52.562;13.418;2023-07-13T01:45:46;100460.00;;;21.40
22828;BMP180;11580;52.562;13.418;2023-07-13T01:48:13;100454.00;;;21.40
22828;BMP180;11580;52.562;13.418;2023-07-13T01:50:41;100457.00;;;21.40
22828;BMP180;11580;52.562;13.418;2023-07-13T01:53:10;100454.00;;;21.40
22828;BMP180;11580;52.562;13.418;2023-07-13T01:55:37;100452.00;;;21.30
22828;BMP180;11580;52.562;13.418;2023-07-13T01:58:06;100446.00;;;21.30
22828;BMP180;11580;52.562;13.418;2023-07-13T02:00:33;100448.00;;;21.30
22828;BMP180;11580;52.562;13.418;2023-07-13T02:03:02;100446.00;;;21.30
22828;BMP180;11580;52.562;13.418;2023-07-13T02:05:29;100453.00;;;21.30
22828;BMP180;11580;52.562;13.418;2023-07-13T02:07:57;100454.00;;;21.30
22828;BMP180;11580;52.562;13.418;2023-07-13T02:10:26;100452.00;;;21.30
22828;BMP180;11580;52.562;13.418;2023-07-13T02:12:54;100460.00;;;21.30
22828;BMP180;11580;52.562;13.418;2023-07-13T02:15:21;100449.00;;;21.30
22828;BMP180;11580;52.562;13.418;2023-07-13T02:17:48;100451.00;;;21.30
22828;BMP180;11580;52.562;13.418;2023-07-13T02:20:15;100462.00;;;21.30
22828;BMP180;11580;52.562;13.418;2023-07-13T02:22:43;100458.00;;;21.30
22828;BMP180;11580;52.562;13.418;2023-07-13T02:25:10;100465.00;;;21.30
22828;BMP180;11580;52.562;13.418;2023-07-13T02:27:38;100456.00;;;21.30
22828;BMP180;11580;52.562;13.418;2023-07-13T02:30:07;100443.00;;;21.30
22828;BMP180;11580;52.562;13.418;2023-07-13T02:32:34;100447.00;;;21.30
22828;BMP180;11580;52.562;13.418;2023-07-13T02:35:02;100445.00;;;21.30
22828;BMP180;11580;52.562;13.418;2023-07-13T02:37:29;100444.00;;;21.30
22828;BMP180;11580;52.562;13.418;2023-07-13T02:39:57;100431.00;;;21.30
22828;BMP180;11580;52.562;13.418;2023-07-13T02:42:24;100435.00;;;21.30
22828;BMP180;11580;52.562;13.418;2023-07-13T02:44:53;100432.00;;;21.30
22828;BMP180;11580;52.562;13.418;2023-07-13T02:47:20;100442.00;;;21.30
22828;BMP180;11580;52.562;13.418;2023-07-13T02:49:47;100443.00;;;21.30
22828;BMP180;11580;52.562;13.418;2023-07-13T02:52:14;100448.00;;;21.30
22828;BMP180;11580;52.562;13.418;2023-07-13T02:54:42;100457.00;;;21.30
22828;BMP180;11580;52.562;13.418;2023-07-13T02:57:10;100458.00;;;21.30
22828;BMP180;11580;52.562;13.418;2023-07-13T02:59:37;100456.00;;;21.30
22828;BMP180;11580;52.562;13.418;2023-07-13T03:02:06;100466.00;;;21.30
22828;BMP180;11580;52.562;13.418;2023-07-13T03:04:35;100475.00;;;21.30
22828;BMP180;11580;52.562;13.418;2023-07-13T03:07:03;100476.00;;;21.30
22828;BMP180;11580;52.562;13.418;2023-07-13T03:09:36;100483.00;;;21.30
22828;BMP180;11580;52.562;13.418;2023-07-13T03:12:06;100486.00;;;21.30
22828;BMP180;11580;52.562;13.418;2023-07-13T03:14:35;100480.00;;;21.40
22828;BMP180;11580;52.562;13.418;2023-07-13T03:17:07;100476.00;;;21.40
22828;BMP180;11580;52.562;13.418;2023-07-13T03:19:38;100487.00;;;21.50
22828;BMP180;11580;52.562;13.418;2023-07-13T03:22:05;100488.00;;;21.50
22828;BMP180;11580;52.562;13.418;2023-07-13T03:24:34;100478.00;;;21.70
22828;BMP180;11580;52.562;13.418;2023-07-13T03:27:06;100492.00;;;21.90
22828;BMP180;11580;52.562;13.418;2023-07-13T03:29:35;100490.00;;;22.10
22828;BMP180;11580;52.562;13.418;2023-07-13T03:32:03;100501.00;;;22.30
22828;BMP180;11580;52.562;13.418;2023-07-13T03:34:33;100495.00;;;22.50
22828;BMP180;11580;52.562;13.418;2023-07-13T03:37:00;100500.00;;;22.70
22828;BMP180;11580;52.562;13.418;2023-07-13T03:39:28;100507.00;;;23.00
22828;BMP180;11580;52.562;13.418;2023-07-13T03:41:57;100510.00;;;23.30
22828;BMP180;11580;52.562;13.418;2023-07-13T03:44:24;100511.00;;;23.60
22828;BMP180;11580;52.562;13.418;2023-07-13T03:46:55;100517.00;;;23.90
22828;BMP180;11580;52.562;13.418;2023-07-13T03:49:23;100516.00;;;24.10
22828;BMP180;11580;52.562;13.418;2023-07-13T03:51:51;100521.00;;;24.20
22828;BMP180;11580;52.562;13.418;2023-07-13T03:54:19;100521.00;;;24.40
22828;BMP180;11580;52.562;13.418;2023-07-13T03:56:46;100520.00;;;24.60
22828;BMP180;11580;52.562;13.418;2023-07-13T03:59:14;100517.00;;;24.70
22828;BMP180;11580;52.562;13.418;2023-07-13T04:01:41;100512.00;;;24.90
22828;BMP180;11580;52.562;13.418;2023-07-13T04:04:08;100518.00;;;25.10
22828;BMP180;11580;52.562;13.418;2023-07-13T04:06:35;100521.00;;;25.40
22828;BMP180;11580;52.562;13.418;2023-07-13T04:09:05;100534.00;;;25.80
22828;BMP180;11580;52.562;13.418;2023-07-13T04:11:33;100534.00;;;26.20
22828;BMP180;11580;52.562;13.418;2023-07-13T04:14:02;100530.00;;;26.60
22828;BMP180;11580;52.562;13.418;2023-07-13T04:16:30;100537.00;;;27.00
22828;BMP180;11580;52.562;13.418;2023-07-13T04:18:57;100544.00;;;27.50
22828;BMP180;11580;52.562;13.418;2023-07-13T04:21:26;100546.00;;;27.90
22828;BMP180;11580;52.562;13.418;2023-07-13T04:23:55;100549.00;;;28.30
22828;BMP180;11580;52.562;13.418;2023-07-13T04:26:24;100547.00;;;28.70
22828;BMP180;11580;52.562;13.418;2023-07-13T04:28:51;100547.00;;;29.10
22828;BMP180;11580;52.562;13.418;2023-07-13T04:31:19;100545.00;;;29.50
22828;BMP180;11580;52.562;13.418;2023-07-13T04:33:47;100552.00;;;29.90
22828;BMP180;11580;52.562;13.418;2023-07-13T04:36:15;100558.00;;;30.20
22828;BMP180;11580;52.562;13.418;2023-07-13T04:38:42;100559.00;;;30.60
22828;BMP180;11580;52.562;13.418;2023-07-13T04:41:10;100568.00;;;30.90
22828;BMP180;11580;52.562;13.418;2023-07-13T04:43:38;100573.00;;;31.20
22828;BMP180;11580;52.562;13.418;2023-07-13T04:46:09;100577.00;;;31.40
22828;BMP180;11580;52.562;13.418;2023-07-13T04:48:37;100583.00;;;31.50
22828;BMP180;11580;52.562;13.418;2023-07-13T04:51:04;100591.00;;;31.50
22828;BMP180;11580;52.562;13.418;2023-07-13T04:53:33;100591.00;;;31.50
22828;BMP180;11580;52.562;13.418;2023-07-13T04:56:01;100583.00;;;31.40
22828;BMP180;11580;52.562;13.418;2023-07-13T04:58:29;100586.00;;;31.40
22828;BMP180;11580;52.562;13.418;2023-07-13T05:01:02;100589.00;;;31.20
22828;BMP180;11580;52.562;13.418;2023-07-13T05:03:29;100590.00;;;31.00
22828;BMP180;11580;52.562;13.418;2023-07-13T05:05:59;100589.00;;;30.80
22828;BMP180;11580;52.562;13.418;2023-07-13T05:08:27;100588.00;;;30.60
22828;BMP180;11580;52.562;13.418;2023-07-13T05:10:54;100592.00;;;30.40
22828;BMP180;11580;52.562;13.418;2023-07-13T05:13:22;100593.00;;;30.20
22828;BMP180;11580;52.562;13.418;2023-07-13T05:15:57;100599.00;;;30.00
22828;BMP180;11580;52.562;13.418;2023-07-13T05:18:26;100597.00;;;29.80
22828;BMP180;11580;52.562;13.418;2023-07-13T05:20:59;100599.00;;;29.70
22828;BMP180;11580;52.562;13.418;2023-07-13T05:23:27;100596.00;;;29.50
22828;BMP180;11580;52.562;13.418;2023-07-13T05:25:54;100598.00;;;29.40
22828;BMP180;11580;52.562;13.418;2023-07-13T05:28:22;100604.00;;;29.30
22828;BMP180;11580;52.562;13.418;2023-07-13T05:30:50;100605.00;;;29.20
22828;BMP180;11580;52.562;13.418;2023-07-13T05:33:17;100601.00;;;29.10
22828;BMP180;11580;52.562;13.418;2023-07-13T05:35:46;100604.00;;;29.00
22828;BMP180;11580;52.562;13.418;2023-07-13T05:38:13;100605.00;;;28.80
22828;BMP180;11580;52.562;13.418;2023-07-13T05:40:42;100611.00;;;28.70
22828;BMP180;11580;52.562;13.418;2023-07-13T05:43:10;100606.00;;;28.50
22828;BMP180;11580;52.562;13.418;2023-07-13T05:45:37;100605.00;;;28.30
22828;BMP180;11580;52.562;13.418;2023-07-13T05:48:05;100614.00;;;28.20
22828;BMP180;11580;52.562;13.418;2023-07-13T05:50:32;100608.00;;;28.00
22828;BMP180;11580;52.562;13.418;2023-07-13T05:53:01;100618.00;;;27.80
22828;BMP180;11580;52.562;13.418;2023-07-13T05:55:28;100613.00;;;27.60
22828;BMP180;11580;52.562;13.418;2023-07-13T05:57:55;100613.00;;;27.40
22828;BMP180;11580;52.562;13.418;2023-07-13T06:00:24;100605.00;;;27.30
22828;BMP180;11580;52.562;13.418;2023-07-13T06:02:51;100608.00;;;27.10
22828;BMP180;11580;52.562;13.418;2023-07-13T06:05:18;100609.00;;;27.00
22828;BMP180;11580;52.562;13.418;2023-07-13T06:07:45;100557.00;;;26.80
22828;BMP180;11580;52.562;13.418;2023-07-13T06:10:14;100616.00;;;26.80
22828;BMP180;11580;52.562;13.418;2023-07-13T06:12:41;100609.00;;;26.70
22828;BMP180;11580;52.562;13.418;2023-07-13T06:15:09;100610.00;;;26.60
22828;BMP180;11580;52.562;13.418;2023-07-13T06:17:36;100605.00;;;26.60
22828;BMP180;11580;52.562;13.418;2023-07-13T06:20:05;100602.00;;;26.60
22828;BMP180;11580;52.562;13.418;2023-07-13T06:22:33;100606.00;;;26.50
22828;BMP180;11580;52.562;13.418;2023-07-13T06:25:00;100604.00;;;26.50
22828;BMP180;11580;52.562;13.418;2023-07-13T06:27:28;100598.00;;;26.50
22828;BMP180;11580;52.562;13.418;2023-07-13T06:29:55;100592.00;;;26.50
22828;BMP180;11580;52.562;13.418;2023-07-13T06:32:23;100595.00;;;26.50
22828;BMP180;11580;52.562;13.418;2023-07-13T06:34:50;100598.00;;;26.40
22828;BMP180;11580;52.562;13.418;2023-07-13T06:37:17;100601.00;;;26.30
22828;BMP180;11580;52.562;13.418;2023-07-13T06:39:44;100596.00;;;26.20
22828;BMP180;11580;52.562;13.418;2023-07-13T06:42:11;100596.00;;;26.10
22828;BMP180;11580;52.562;13.418;2023-07-13T06:44:40;100600.00;;;26.10
22828;BMP180;11580;52.562;13.418;2023-07-13T06:47:07;100597.00;;;26.00
22828;BMP180;11580;52.562;13.418;2023-07-13T06:49:34;100599.00;;;25.90
22828;BMP180;11580;52.562;13.418;2023-07-13T06:52:02;100605.00;;;25.90
22828;BMP180;11580;52.562;13.418;2023-07-13T06:54:29;100598.00;;;25.80
22828;BMP180;11580;52.562;13.418;2023-07-13T06:56:57;100589.00;;;25.80
22828;BMP180;11580;52.562;13.418;2023-07-13T06:59:24;100592.00;;;25.80
22828;BMP180;11580;52.562;13.418;2023-07-13T07:01:52;100596.00;;;25.80
22828;BMP180;11580;52.562;13.418;2023-07-13T07:04:19;100587.00;;;25.80
22828;BMP180;11580;52.562;13.418;2023-07-13T07:06:47;100589.00;;;25.80
22828;BMP180;11580;52.562;13.418;2023-07-13T07:09:14;100595.00;;;25.80
22828;BMP180;11580;52.562;13.418;2023-07-13T07:11:42;100578.00;;;25.80
22828;BMP180;11580;52.562;13.418;2023-07-13T07:14:09;100587.00;;;25.80
22828;BMP180;11580;52.562;13.418;2023-07-13T07:16:36;100594.00;;;25.90
22828;BMP180;11580;52.562;13.418;2023-07-13T07:19:05;100591.00;;;25.90
22828;BMP180;11580;52.562;13.418;2023-07-13T07:21:32;100581.00;;;26.00
22828;BMP180;11580;52.562;13.418;2023-07-13T07:23:59;100593.00;;;26.10
22828;BMP180;11580;52.562;13.418;2023-07-13T07:26:26;100596.00;;;26.10
22828;BMP180;11580;52.562;13.418;2023-07-13T07:28:53;100600.00;;;26.20
22828;BMP180;11580;52.562;13.418;2023-07-13T07:31:20;100604.00;;;26.30
22828;BMP180;11580;52.562;13.418;2023-07-13T07:33:48;100603.00;;;26.40
22828;BMP180;11580;52.562;13.418;2023-07-13T07:36:17;100598.00;;;26.50
22828;BMP180;11580;52.562;13.418;2023-07-13T07:38:44;100598.00;;;26.60
22828;BMP180;11580;52.562;13.418;2023-07-13T07:41:12;100601.00;;;26.70
22828;BMP180;11580;52.562;13.418;2023-07-13T07:43:40;100611.00;;;26.70
22828;BMP180;11580;52.562;13.418;2023-07-13T07:46:07;100614.00;;;26.80
22828;BMP180;11580;52.562;13.418;2023-07-13T07:48:34;100607.00;;;26.90
22828;BMP180;11580;52.562;13.418;2023-07-13T07:51:01;100606.00;;;27.00
22828;BMP180;11580;52.562;13.418;2023-07-13T07:53:30;100612.00;;;27.10
22828;BMP180;11580;52.562;13.418;2023-07-13T07:55:57;100609.00;;;27.20
22828;BMP180;11580;52.562;13.418;2023-07-13T07:58:24;100616.00;;;27.40
22828;BMP180;11580;52.562;13.418;2023-07-13T08:00:51;100619.00;;;27.60
22828;BMP180;11580;52.562;13.418;2023-07-13T08:03:19;100614.00;;;27.70
22828;BMP180;11580;52.562;13.418;2023-07-13T08:05:46;100622.00;;;27.80
22828;BMP180;11580;52.562;13.418;2023-07-13T08:08:13;100621.00;;;28.00
22828;BMP180;11580;52.562;13.418;2023-07-13T08:10:41;100620.00;;;28.10
22828;BMP180;11580;52.562;13.418;2023-07-13T08:13:09;100626.00;;;28.20
22828;BMP180;11580;52.562;13.418;2023-07-13T08:15:37;100623.00;;;28.30
22828;BMP180;11580;52.562;13.418;2023-07-13T08:18:04;100623.00;;;28.40
22828;BMP180;11580;52.562;13.418;2023-07-13T08:20:32;100635.00;;;28.50
22828;BMP180;11580;52.562;13.418;2023-07-13T08:22:59;100625.00;;;28.60
22828;BMP180;11580;52.562;13.418;2023-07-13T08:25:26;100619.00;;;28.70
22828;BMP180;11580;52.562;13.418;2023-07-13T08:27:55;100627.00;;;28.80
22828;BMP180;11580;52.562;13.418;2023-07-13T08:30:22;100626.00;;;28.90
22828;BMP180;11580;52.562;13.418;2023-07-13T08:32:49;100633.00;;;29.00
22828;BMP180;11580;52.562;13.418;2023-07-13T08:35:16;100639.00;;;29.10
22828;BMP180;11580;52.562;13.418;2023-07-13T08:37:43;100637.00;;;29.30
22828;BMP180;11580;52.562;13.418;2023-07-13T08:40:12;100641.00;;;29.40
22828;BMP180;11580;52.562;13.418;2023-07-13T08:42:45;100643.00;;;29.50
22828;BMP180;11580;52.562;13.418;2023-07-13T08:45:21;100638.00;;;29.60
22828;BMP180;11580;52.562;13.418;2023-07-13T08:47:53;100646.00;;;29.70
22828;BMP180;11580;52.562;13.418;2023-07-13T08:50:29;100638.00;;;29.80
22828;BMP180;11580;52.562;13.418;2023-07-13T08:53:00;100643.00;;;29.80
22828;BMP180;11580;52.562;13.418;2023-07-13T08:55:33;100645.00;;;29.90
22828;BMP180;11580;52.562;13.418;2023-07-13T08:58:09;100640.00;;;29.90
22828;BMP180;11580;52.562;13.418;2023-07-13T09:00:48;100646.00;;;30.10
22828;BMP180;11580;52.562;13.418;2023-07-13T09:03:24;100655.00;;;30.10
22828;BMP180;11580;52.562;13.418;2023-07-13T09:05:57;100652.00;;;30.10
22828;BMP180;11580;52.562;13.418;2023-07-13T09:08:43;100655.00;;;30.00
22828;BMP180;11580;52.562;13.418;2023-07-13T09:11:34;100652.00;;;29.80
22828;BMP180;11580;52.562;13.418;2023-07-13T09:17:04;100645.00;;;29.40
22828;BMP180;11580;52.562;13.418;2023-07-13T09:19:34;100645.00;;;29.30
22828;BMP180;11580;52.562;13.418;2023-07-13T09:22:05;100642.00;;;29.20
22828;BMP180;11580;52.562;13.418;2023-07-13T09:24:41;100639.00;;;29.10
22828;BMP180;11580;52.562;13.418;2023-07-13T09:27:21;100634.00;;;29.10
22828;BMP180;11580;52.562;13.418;2023-07-13T09:29:58;100649.00;;;29.00
22828;BMP180;11580;52.562;13.418;2023-07-13T09:32:30;100639.00;;;28.90
22828;BMP180;11580;52.562;13.418;2023-07-13T09:34:58;100646.00;;;28.90
22828;BMP180;11580;52.562;13.418;2023-07-13T09:37:31;100643.00;;;28.80
22828;BMP180;11580;52.562;13.418;2023-07-13T09:40:01;100644.00;;;28.80
22828;BMP180;11580;52.562;13.418;2023-07-13T09:42:32;100640.00;;;28.80
22828;BMP180;11580;52.562;13.418;2023-07-13T09:45:02;100639.00;;;28.70
22828;BMP180;11580;52.562;13.418;2023-07-13T09:47:37;100641.00;;;28.80
22828;BMP180;11580;52.562;13.418;2023-07-13T09:50:09;100639.00;;;28.80
22828;BMP180;11580;52.562;13.418;2023-07-13T09:52:42;100645.00;;;28.80
22828;BMP180;11580;52.562;13.418;2023-07-13T09:55:26;100649.00;;;29.00
22828;BMP180;11580;52.562;13.418;2023-07-13T09:57:53;100638.00;;;29.00
22828;BMP180;11580;52.562;13.418;2023-07-13T10:00:23;100648.00;;;29.20
22828;BMP180;11580;52.562;13.418;2023-07-13T10:03:02;100643.00;;;29.40
22828;BMP180;11580;52.562;13.418;2023-07-13T10:05:39;100642.00;;;29.50
22828;BMP180;11580;52.562;13.418;2023-07-13T10:08:17;100644.00;;;29.70
22828;BMP180;11580;52.562;13.418;2023-07-13T10:10:45;100624.00;;;29.90
22828;BMP180;11580;52.562;13.418;2023-07-13T10:13:32;100648.00;;;30.10
22828;BMP180;11580;52.562;13.418;2023-07-13T10:16:04;100655.00;;;30.30
22828;BMP180;11580;52.562;13.418;2023-07-13T10:18:39;100647.00;;;30.40
22828;BMP180;11580;52.562;13.418;2023-07-13T10:21:14;100646.00;;;30.50
22828;BMP180;11580;52.562;13.418;2023-07-13T10:23:43;100652.00;;;30.60
22828;BMP180;11580;52.562;13.418;2023-07-13T10:26:20;100647.00;;;30.70
22828;BMP180;11580;52.562;13.418;2023-07-13T10:28:53;100650.00;;;30.80
22828;BMP180;11580;52.562;13.418;2023-07-13T10:31:23;100647.00;;;30.80
22828;BMP180;11580;52.562;13.418;2023-07-13T10:33:52;100655.00;;;30.80
22828;BMP180;11580;52.562;13.418;2023-07-13T10:36:34;100660.00;;;30.80
22828;BMP180;11580;52.562;13.418;2023-07-13T10:39:06;100659.00;;;30.80
22828;BMP180;11580;52.562;13.418;2023-07-13T10:41:40;100649.00;;;30.70
22828;BMP180;11580;52.562;13.418;2023-07-13T10:44:20;100650.00;;;30.70
22828;BMP180;11580;52.562;13.418;2023-07-13T10:46:54;100660.00;;;30.60
22828;BMP180;11580;52.562;13.418;2023-07-13T10:49:25;100653.00;;;30.50
22828;BMP180;11580;52.562;13.418;2023-07-13T10:51:53;100647.00;;;30.50
22828;BMP180;11580;52.562;13.418;2023-07-13T10:54:26;100653.00;;;30.50
22828;BMP180;11580;52.562;13.418;2023-07-13T10:57:15;100642.00;;;30.40
22828;BMP180;11580;52.562;13.418;2023-07-13T10:59:47;100657.00;;;30.20
22828;BMP180;11580;52.562;13.418;2023-07-13T11:02:25;100647.00;;;30.10
22828;BMP180;11580;52.562;13.418;2023-07-13T11:04:56;100639.00;;;30.00
22828;BMP180;11580;52.562;13.418;2023-07-13T11:07:26;100639.00;;;29.90
22828;BMP180;11580;52.562;13.418;2023-07-13T11:09:56;100639.00;;;29.80
22828;BMP180;11580;52.562;13.418;2023-07-13T11:12:50;100655.00;;;29.70
22828;BMP180;11580;52.562;13.418;2023-07-13T11:15:43;100644.00;;;29.60
22828;BMP180;11580;52.562;13.418;2023-07-13T11:18:22;100646.00;;;29.60
22828;BMP180;11580;52.562;13.418;2023-07-13T11:20:52;100646.00;;;29.60
22828;BMP180;11580;52.562;13.418;2023-07-13T11:23:43;100645.00;;;29.60
22828;BMP180;11580;52.562;13.418;2023-07-13T11:26:39;100644.00;;;29.70
22828;BMP180;11580;52.562;13.418;2023-07-13T11:29:27;100642.00;;;29.70
22828;BMP180;11580;52.562;13.418;2023-07-13T11:32:21;100636.00;;;29.70
22828;BMP180;11580;52.562;13.418;2023-07-13T11:34:50;100636.00;;;29.70
22828;BMP180;11580;52.562;13.418;2023-07-13T11:37:20;100633.00;;;29.70
22828;BMP180;11580;52.562;13.418;2023-07-13T11:39:50;100631.00;;;29.80
22828;BMP180;11580;52.562;13.418;2023-07-13T11:42:20;100632.00;;;29.80
22828;BMP180;11580;52.562;13.418;2023-07-13T11:44:50;100653.00;;;29.90
22828;BMP180;11580;52.562;13.418;2023-07-13T11:47:22;100652.00;;;29.90
22828;BMP180;11580;52.562;13.418;2023-07-13T11:49:54;100640.00;;;29.90
22828;BMP180;11580;52.562;13.418;2023-07-13T11:52:30;100650.00;;;29.90
22828;BMP180;11580;52.562;13.418;2023-07-13T11:55:02;100653.00;;;29.90
22828;BMP180;11580;52.562;13.418;2023-07-13T11:57:36;100639.00;;;29.90
22828;BMP180;11580;52.562;13.418;2023-07-13T12:00:14;100638.00;;;29.90
22828;BMP180;11580;52.562;13.418;2023-07-13T12:02:45;100630.00;;;29.90
22828;BMP180;11580;52.562;13.418;2023-07-13T12:05:15;100641.00;;;29.90
22828;BMP180;11580;52.562;13.418;2023-07-13T12:07:45;100645.00;;;29.80
22828;BMP180;11580;52.562;13.418;2023-07-13T12:10:20;100646.00;;;29.80
22828;BMP180;11580;52.562;13.418;2023-07-13T12:12:52;100632.00;;;29.80
22828;BMP180;11580;52.562;13.418;2023-07-13T12:15:20;100636.00;;;29.70
22828;BMP180;11580;52.562;13.418;2023-07-13T12:17:49;100645.00;;;29.70
22828;BMP180;11580;52.562;13.418;2023-07-13T12:20:23;100647.00;;;29.60
22828;BMP180;11580;52.562;13.418;2023-07-13T12:22:53;100642.00;;;29.70
22828;BMP180;11580;52.562;13.418;2023-07-13T12:25:28;100650.00;;;29.60
22828;BMP180;11580;52.562;13.418;2023-07-13T12:27:55;100638.00;;;29.60
22828;BMP180;11580;52.562;13.418;2023-07-13T12:30:27;100647.00;;;29.60
22828;BMP180;11580;52.562;13.418;2023-07-13T12:32:59;100640.00;;;29.60
22828;BMP180;11580;52.562;13.418;2023-07-13T12:35:29;100641.00;;;29.60
22828;BMP180;11580;52.562;13.418;2023-07-13T12:38:02;100642.00;;;29.60
22828;BMP180;11580;52.562;13.418;2023-07-13T12:40:34;100638.00;;;29.60
22828;BMP180;11580;52.562;13.418;2023-07-13T12:43:04;100639.00;;;29.60
22828;BMP180;11580;52.562;13.418;2023-07-13T12:45:33;100637.00;;;29.60
22828;BMP180;11580;52.562;13.418;2023-07-13T12:48:16;100633.00;;;29.70
22828;BMP180;11580;52.562;13.418;2023-07-13T12:50:48;100629.00;;;29.70
22828;BMP180;11580;52.562;13.418;2023-07-13T12:53:29;100638.00;;;29.70
22828;BMP180;11580;52.562;13.418;2023-07-13T12:56:02;100635.00;;;29.70
22828;BMP180;11580;52.562;13.418;2023-07-13T12:58:36;100610.00;;;29.70
22828;BMP180;11580;52.562;13.418;2023-07-13T13:01:05;100638.00;;;29.60
22828;BMP180;11580;52.562;13.418;2023-07-13T13:03:35;100636.00;;;29.70
22828;BMP180;11580;52.562;13.418;2023-07-13T13:06:06;100631.00;;;29.70
22828;BMP180;11580;52.562;13.418;2023-07-13T13:08:36;100635.00;;;29.70
22828;BMP180;11580;52.562;13.418;2023-07-13T13:11:03;100627.00;;;29.80
22828;BMP180;11580;52.562;13.418;2023-07-13T13:13:31;100632.00;;;29.80
22828;BMP180;11580;52.562;13.418;2023-07-13T13:16:02;100634.00;;;29.90
22828;BMP180;11580;52.562;13.418;2023-07-13T13:18:32;100630.00;;;30.00
22828;BMP180;11580;52.562;13.418;2023-07-13T13:20:59;100643.00;;;30.10
22828;BMP180;11580;52.562;13.418;2023-07-13T13:23:26;100636.00;;;30.30
22828;BMP180;11580;52.562;13.418;2023-07-13T13:25:55;100630.00;;;30.30
22828;BMP180;11580;52.562;13.418;2023-07-13T13:28:22;100633.00;;;30.50
22828;BMP180;11580;52.562;13.418;2023-07-13T13:30:51;100633.00;;;30.50
22828;BMP180;11580;52.562;13.418;2023-07-13T13:33:21;100635.00;;;30.50
22828;BMP180;11580;52.562;13.418;2023-07-13T13:35:49;100625.00;;;30.60
22828;BMP180;11580;52.562;13.418;2023-07-13T13:38:20;100623.00;;;30.60
22828;BMP180;11580;52.562;13.418;2023-07-13T13:40:49;100640.00;;;30.70
22828;BMP180;11580;52.562;13.418;2023-07-13T13:43:23;100641.00;;;30.70
22828;BMP180;11580;52.562;13.418;2023-07-13T13:45:56;100655.00;;;30.80
22828;BMP180;11580;52.562;13.418;2023-07-13T13:48:31;100636.00;;;30.80
22828;BMP180;11580;52.562;13.418;2023-07-13T13:51:01;100639.00;;;30.80
22828;BMP180;11580;52.562;13.418;2023-07-13T13:53:31;100633.00;;;30.80
22828;BMP180;11580;52.562;13.418;2023-07-13T13:55:58;100630.00;;;30.70
22828;BMP180;11580;52.562;13.418;2023-07-13T13:58:27;100637.00;;;30.70
22828;BMP180;11580;52.562;13.418;2023-07-13T14:00:54;100642.00;;;30.60
22828;BMP180;11580;52.562;13.418;2023-07-13T14:03:21;100635.00;;;30.50
22828;BMP180;11580;52.562;13.418;2023-07-13T14:05:49;100650.00;;;30.40